Overview Statistics Trail Chart Weather Telemetry Raw packets
 

This is the latest recevied weather packets stored in our database for station/object OK4PZ-5. If no packets are shown the sender has not sent any weather packets the latest 10 day(s).

<< 6 7 8 9 10 11 12 >>
Time Temp. Humidity Pressure Rain* Wind** Luminosity Snow
1788444903 23.33° C 45% 1022 hPa 0 mm - - -
1788444002 23.33° C 43% 1022 hPa 0 mm - - -
1788443102 24.44° C 44% 1022 hPa 0 mm - - -
1788442202 24.44° C 45% 1022 hPa 0 mm - - -
1788441303 23.33° C 46% 1022 hPa 0 mm - - -
1788440403 23.89° C 45% 1022 hPa 0 mm - - -
1788439503 23.33° C 47% 1022 hPa 0 mm - - -
1788438603 23.89° C 46% 1022 hPa 0 mm - - -
1788437702 23.89° C 46% 1022 hPa 0 mm - - -
1788436802 23.33° C 46% 1022 hPa 0 mm - - -
1788435902 23.33° C 47% 1022 hPa 0 mm - - -
1788435003 22.78° C 48% 1023 hPa 0 mm - - -
1788434103 22.22° C 49% 1023 hPa 0 mm - - -
1788433203 21.67° C 51% 1023 hPa 0 mm - - -
1788432302 21.67° C 52% 1023 hPa 0 mm - - -
1788431402 21.67° C 51% 1023 hPa 0 mm - - -
1788430503 22.22° C 50% 1023 hPa 0 mm - - -
1788429601 22.22° C 50% 1023 hPa 0 mm - - -
1788428702 21.67° C 53% 1023 hPa 0 mm - - -
1788427802 21.67° C 55% 1023 hPa 0 mm - - -
1788426902 21.67° C 57% 1023 hPa 0 mm - - -
1788426002 21.67° C 57% 1023 hPa 0 mm - - -
1788425102 21.11° C 60% 1023 hPa 0 mm - - -
1788424202 20.56° C 60% 1023 hPa 0 mm - - -
1788423302 21.11° C 58% 1023 hPa 0 mm - - -

* Rain latest hour (hover to see other rain measurements)
** Current wind speed in m/s (hover to see current wind gust speed)